createdAt,value
2018-05-23T00:01:29.754Z,19.83
2018-05-23T00:03:57.298Z,19.80
2018-05-23T00:06:24.805Z,19.78
2018-05-23T00:08:52.293Z,19.75
2018-05-23T00:11:19.823Z,19.79
2018-05-23T00:13:47.626Z,19.86
2018-05-23T00:16:15.385Z,19.80
2018-05-23T00:18:44.149Z,19.82
2018-05-23T00:21:11.667Z,19.78
2018-05-23T00:23:39.491Z,19.72
2018-05-23T00:26:07.040Z,19.70
2018-05-23T00:28:34.562Z,19.68
2018-05-23T00:31:03.183Z,19.66
2018-05-23T00:33:30.775Z,19.64
2018-05-23T00:35:58.285Z,19.63
2018-05-23T00:38:26.094Z,19.62
2018-05-23T00:40:53.966Z,19.63
2018-05-23T00:43:21.812Z,19.63
2018-05-23T00:45:49.327Z,19.56
2018-05-23T00:48:17.191Z,19.53
2018-05-23T00:50:44.681Z,19.49
2018-05-23T00:53:12.194Z,19.46
2018-05-23T00:55:39.725Z,19.45
2018-05-23T00:58:07.582Z,19.42
2018-05-23T01:00:35.371Z,19.39
2018-05-23T01:03:02.922Z,19.40
2018-05-23T01:05:30.457Z,19.39
2018-05-23T01:07:58.049Z,19.34
2018-05-23T01:10:25.607Z,19.28
2018-05-23T01:12:53.135Z,19.25
2018-05-23T01:15:20.733Z,19.27
2018-05-23T01:17:48.363Z,19.30
2018-05-23T01:20:15.866Z,19.24
2018-05-23T01:22:43.550Z,19.22
2018-05-23T01:25:11.570Z,19.21
2018-05-23T01:27:39.086Z,19.26
2018-05-23T01:30:06.637Z,19.18
2018-05-23T01:32:34.204Z,19.20
2018-05-23T01:35:01.792Z,19.16
2018-05-23T01:37:29.377Z,19.10
2018-05-23T01:39:57.759Z,19.09
2018-05-23T01:42:25.291Z,19.01
2018-05-23T01:44:53.106Z,19.00
2018-05-23T01:47:20.666Z,18.98
2018-05-23T01:49:48.252Z,18.96
2018-05-23T01:52:16.097Z,18.94
2018-05-23T01:54:43.615Z,18.91
2018-05-23T01:57:11.160Z,18.92
2018-05-23T01:59:38.684Z,18.88
2018-05-23T02:02:06.261Z,18.84
2018-05-23T02:04:33.762Z,18.80
2018-05-23T02:07:01.302Z,18.79
2018-05-23T02:09:28.822Z,18.81
2018-05-23T02:11:56.689Z,18.82
2018-05-23T02:14:24.278Z,18.78
2018-05-23T02:16:51.808Z,18.78
2018-05-23T02:19:19.333Z,18.72
2018-05-23T02:21:47.364Z,18.63
2018-05-23T02:24:15.384Z,18.62
2018-05-23T02:26:43.512Z,18.65
2018-05-23T02:29:11.044Z,18.63
2018-05-23T02:31:38.574Z,18.57
2018-05-23T02:34:06.098Z,18.57
2018-05-23T02:36:33.669Z,18.53
2018-05-23T02:39:01.174Z,18.50
2018-05-23T02:41:29.040Z,18.49
2018-05-23T02:43:57.961Z,18.45
2018-05-23T02:46:25.489Z,18.40
2018-05-23T02:48:53.007Z,18.35
2018-05-23T02:51:20.821Z,18.28
2018-05-23T02:53:48.338Z,18.22
2018-05-23T02:56:15.865Z,18.26
2018-05-23T02:58:43.378Z,18.21
2018-05-23T03:01:10.926Z,18.15
2018-05-23T03:03:38.910Z,18.14
2018-05-23T03:06:06.435Z,18.15
2018-05-23T03:08:33.993Z,18.12
2018-05-23T03:11:01.526Z,18.11
2018-05-23T03:13:29.079Z,18.13
2018-05-23T03:15:56.628Z,18.12
2018-05-23T03:18:24.147Z,18.18
2018-05-23T03:20:51.775Z,18.20
2018-05-23T03:23:19.297Z,18.21
2018-05-23T03:25:46.808Z,18.18
2018-05-23T03:28:14.331Z,18.15
2018-05-23T03:30:42.110Z,18.11
2018-05-23T03:33:09.625Z,18.14
2018-05-23T03:35:37.435Z,18.09
2018-05-23T03:38:05.197Z,18.08
2018-05-23T03:40:32.722Z,18.09
2018-05-23T03:43:00.240Z,18.05
2018-05-23T03:45:27.789Z,17.99
2018-05-23T03:47:55.368Z,17.94
2018-05-23T03:50:22.907Z,17.88
2018-05-23T03:52:50.485Z,17.93
2018-05-23T03:55:18.070Z,17.93
2018-05-23T03:57:45.569Z,17.83
2018-05-23T04:00:24.874Z,17.79
2018-05-23T04:03:04.380Z,17.80
2018-05-23T04:05:44.794Z,17.79
2018-05-23T04:08:12.325Z,17.82
2018-05-23T04:10:39.819Z,17.78
2018-05-23T04:13:07.343Z,17.80
2018-05-23T04:15:34.850Z,17.78
2018-05-23T04:18:02.449Z,17.80
2018-05-23T04:20:29.975Z,17.81
2018-05-23T04:22:57.531Z,17.84
2018-05-23T04:25:25.358Z,17.80
2018-05-23T04:27:52.889Z,17.83
2018-05-23T04:30:20.411Z,17.82
2018-05-23T04:32:47.974Z,17.94
2018-05-23T04:35:15.487Z,17.90
2018-05-23T04:37:43.023Z,17.91
2018-05-23T04:40:10.618Z,17.90
2018-05-23T04:42:38.928Z,17.93
2018-05-23T04:45:07.027Z,17.96
2018-05-23T04:47:34.548Z,17.94
2018-05-23T04:50:02.057Z,17.97
2018-05-23T04:52:29.609Z,18.00
2018-05-23T04:54:57.114Z,18.04
2018-05-23T04:57:24.634Z,18.07
2018-05-23T04:59:52.159Z,18.13
2018-05-23T05:02:19.725Z,18.22
2018-05-23T05:04:47.300Z,18.23
2018-05-23T05:07:14.848Z,18.31
2018-05-23T05:09:42.372Z,18.28
2018-05-23T05:12:10.188Z,18.30
2018-05-23T05:14:37.727Z,18.31
2018-05-23T05:17:05.276Z,18.39
2018-05-23T05:19:32.948Z,18.41
2018-05-23T05:22:00.774Z,18.39
2018-05-23T05:24:28.289Z,18.48
2018-05-23T05:26:55.976Z,18.54
2018-05-23T05:29:23.829Z,18.54
2018-05-23T05:31:51.437Z,18.57
2018-05-23T05:34:19.566Z,18.63
2018-05-23T05:36:47.077Z,18.64
2018-05-23T05:39:14.605Z,18.71
2018-05-23T05:41:42.137Z,18.77
2018-05-23T05:44:09.669Z,18.82
2018-05-23T05:46:37.655Z,18.86
2018-05-23T05:49:05.563Z,18.90
2018-05-23T05:51:33.645Z,18.93
2018-05-23T05:54:01.349Z,18.96
2018-05-23T05:56:28.874Z,19.02
2018-05-23T05:58:56.435Z,19.05
2018-05-23T06:01:23.998Z,19.13
2018-05-23T06:03:52.072Z,19.20
2018-05-23T06:06:19.748Z,19.24
2018-05-23T06:08:47.680Z,19.27
2018-05-23T06:11:15.246Z,19.42
2018-05-23T06:13:42.824Z,19.38
2018-05-23T06:16:10.369Z,19.43
2018-05-23T06:18:37.920Z,19.46
2018-05-23T06:21:05.475Z,19.60
2018-05-23T06:23:33.015Z,19.68
2018-05-23T06:26:00.563Z,19.65
2018-05-23T06:28:28.469Z,19.81
2018-05-23T06:30:56.004Z,20.01
2018-05-23T06:33:23.567Z,20.17
2018-05-23T06:35:51.126Z,20.42
2018-05-23T06:38:18.832Z,20.65
2018-05-23T06:40:46.348Z,20.94
2018-05-23T06:43:13.896Z,21.22
2018-05-23T06:45:41.701Z,21.44
2018-05-23T06:48:09.362Z,21.77
2018-05-23T06:50:36.876Z,22.27
2018-05-23T06:53:04.398Z,22.50
2018-05-23T06:55:31.917Z,22.79
2018-05-23T06:57:59.601Z,23.14
2018-05-23T07:00:27.278Z,23.58
2018-05-23T07:02:54.806Z,23.94
2018-05-23T07:05:22.384Z,24.15
2018-05-23T07:07:49.940Z,24.34
2018-05-23T07:10:17.711Z,24.74
2018-05-23T07:12:45.333Z,25.16
2018-05-23T07:15:12.895Z,25.50
2018-05-23T07:17:40.461Z,25.69
2018-05-23T07:20:08.978Z,25.81
2018-05-23T07:22:36.529Z,26.01
2018-05-23T07:25:04.507Z,25.97
2018-05-23T07:27:32.031Z,26.41
2018-05-23T07:29:59.561Z,26.20
2018-05-23T07:32:27.074Z,26.26
2018-05-23T07:34:54.591Z,26.49
2018-05-23T07:37:22.417Z,26.08
2018-05-23T07:39:50.005Z,25.88
2018-05-23T07:42:17.532Z,25.76
2018-05-23T07:44:45.164Z,25.67
2018-05-23T07:47:12.683Z,25.25
2018-05-23T07:49:40.734Z,25.00
2018-05-23T07:52:08.278Z,24.78
2018-05-23T07:54:35.799Z,24.75
2018-05-23T07:57:03.569Z,24.86
2018-05-23T07:59:31.103Z,24.98
2018-05-23T08:01:59.546Z,25.16
2018-05-23T08:04:27.367Z,25.46
2018-05-23T08:06:54.901Z,25.82
2018-05-23T08:09:22.454Z,26.14
2018-05-23T08:11:50.319Z,26.50
2018-05-23T08:14:17.888Z,26.72
2018-05-23T08:16:45.448Z,26.78
2018-05-23T08:19:13.103Z,27.23
2018-05-23T08:21:40.607Z,27.73
2018-05-23T08:24:08.387Z,28.38
2018-05-23T08:26:35.937Z,28.75
2018-05-23T08:29:03.504Z,29.03
2018-05-23T08:31:31.315Z,28.44
2018-05-23T08:33:58.888Z,28.64
2018-05-23T08:36:26.461Z,28.64
2018-05-23T08:38:54.017Z,28.79
2018-05-23T08:41:21.574Z,29.05
2018-05-23T08:43:49.543Z,29.50
2018-05-23T08:46:17.150Z,29.61
2018-05-23T08:48:45.129Z,29.29
2018-05-23T08:51:12.729Z,29.19
2018-05-23T08:53:40.273Z,29.03
2018-05-23T08:56:08.047Z,29.23
2018-05-23T08:58:35.550Z,29.22
2018-05-23T09:01:03.081Z,29.34
2018-05-23T09:03:30.931Z,29.22
2018-05-23T09:05:58.539Z,29.21
2018-05-23T09:08:26.046Z,28.98
2018-05-23T09:10:53.574Z,29.31
2018-05-23T09:13:21.386Z,29.41
2018-05-23T09:15:48.912Z,29.67
2018-05-23T09:18:16.417Z,29.79
2018-05-23T09:20:44.167Z,29.41
2018-05-23T09:23:11.690Z,29.46
2018-05-23T09:25:39.266Z,29.49
2018-05-23T09:28:06.764Z,29.15
2018-05-23T09:30:34.305Z,28.64
2018-05-23T09:33:02.169Z,28.00
2018-05-23T09:35:29.833Z,27.44
2018-05-23T09:37:57.339Z,27.15
2018-05-23T09:40:24.884Z,26.67
2018-05-23T09:42:52.461Z,26.25
2018-05-23T09:45:19.999Z,26.06
2018-05-23T09:47:47.685Z,26.05
2018-05-23T09:50:15.274Z,25.98
2018-05-23T09:52:42.858Z,26.00
2018-05-23T09:55:10.496Z,25.94
2018-05-23T09:57:37.926Z,25.90
2018-05-23T10:00:05.471Z,25.94
2018-05-23T10:02:32.974Z,25.87
2018-05-23T10:05:00.504Z,26.07
2018-05-23T10:07:28.150Z,26.08
2018-05-23T10:09:55.691Z,26.24
2018-05-23T10:12:23.215Z,26.42
2018-05-23T10:14:50.742Z,26.60
2018-05-23T10:17:18.280Z,26.71
2018-05-23T10:19:45.816Z,26.82
2018-05-23T10:22:13.313Z,26.77
2018-05-23T10:24:40.915Z,26.72
2018-05-23T10:27:08.452Z,26.62
2018-05-23T10:29:35.995Z,26.75
2018-05-23T10:32:03.524Z,27.04
2018-05-23T10:34:31.046Z,27.23
2018-05-23T10:36:58.706Z,27.39
2018-05-23T10:39:27.908Z,27.74
2018-05-23T10:41:55.749Z,28.12
2018-05-23T10:44:23.505Z,28.32
2018-05-23T10:46:51.037Z,28.43
2018-05-23T10:49:18.911Z,28.22
2018-05-23T10:51:46.564Z,27.63
2018-05-23T10:54:14.180Z,27.32
2018-05-23T10:56:41.768Z,26.97
2018-05-23T10:59:09.271Z,26.83
2018-05-23T11:01:36.785Z,26.89
2018-05-23T11:04:04.289Z,27.07
2018-05-23T11:06:32.160Z,27.28
2018-05-23T11:08:59.844Z,27.24
2018-05-23T11:11:27.670Z,27.13
2018-05-23T11:13:55.192Z,27.11
2018-05-23T11:16:22.914Z,27.10
2018-05-23T11:18:50.475Z,27.08
2018-05-23T11:21:18.336Z,27.12
2018-05-23T11:23:45.850Z,27.14
2018-05-23T11:26:13.370Z,27.04
2018-05-23T11:28:41.122Z,27.17
2018-05-23T11:31:08.794Z,27.37
2018-05-23T11:33:36.644Z,27.54
2018-05-23T11:36:04.223Z,28.04
2018-05-23T11:38:31.747Z,28.67
2018-05-23T11:40:59.338Z,28.68
2018-05-23T11:43:27.007Z,28.71
2018-05-23T11:45:54.622Z,28.49
2018-05-23T11:48:22.244Z,28.82
2018-05-23T11:50:49.787Z,28.84
2018-05-23T11:53:17.342Z,29.30
2018-05-23T11:55:45.008Z,30.56
2018-05-23T11:58:12.642Z,32.09
2018-05-23T12:00:40.181Z,33.81
2018-05-23T12:03:07.922Z,36.08
2018-05-23T12:05:35.506Z,37.76
2018-05-23T12:08:03.015Z,38.41
2018-05-23T12:10:30.852Z,39.30
2018-05-23T12:12:58.291Z,40.94
2018-05-23T12:15:25.833Z,41.97
2018-05-23T12:17:53.374Z,41.63
2018-05-23T12:20:20.895Z,41.12
2018-05-23T12:22:48.427Z,41.06
2018-05-23T12:25:16.182Z,41.71
2018-05-23T12:27:43.708Z,42.51
2018-05-23T12:30:11.214Z,42.49
2018-05-23T12:32:38.757Z,42.99
2018-05-23T12:35:07.114Z,42.41
2018-05-23T12:37:34.673Z,42.46
2018-05-23T12:40:02.332Z,43.11
2018-05-23T12:42:29.970Z,43.25
2018-05-23T12:44:57.561Z,43.11
2018-05-23T12:47:25.523Z,43.33
2018-05-23T12:49:53.096Z,43.48
2018-05-23T12:52:20.643Z,44.17
2018-05-23T12:54:48.310Z,43.94
2018-05-23T12:57:15.867Z,43.62
2018-05-23T12:59:43.640Z,43.32
2018-05-23T13:02:11.153Z,43.83
2018-05-23T13:04:38.657Z,45.22
2018-05-23T13:07:06.218Z,44.96
2018-05-23T13:09:33.740Z,45.54
2018-05-23T13:12:01.266Z,45.47
2018-05-23T13:14:28.918Z,45.97
2018-05-23T13:16:56.440Z,45.44
2018-05-23T13:19:24.311Z,44.73
2018-05-23T13:21:51.842Z,45.03
2018-05-23T13:24:19.337Z,44.51
2018-05-23T13:26:46.984Z,45.38
2018-05-23T13:29:14.502Z,45.67
2018-05-23T13:31:42.063Z,45.92
2018-05-23T13:34:09.549Z,45.97
2018-05-23T13:36:37.180Z,46.20
2018-05-23T13:39:05.478Z,45.50
2018-05-23T13:41:32.994Z,46.18
2018-05-23T13:44:00.489Z,45.06
2018-05-23T13:46:28.092Z,44.46
2018-05-23T13:48:55.599Z,44.74
2018-05-23T13:51:23.134Z,43.92
2018-05-23T13:53:50.640Z,44.86
2018-05-23T13:56:18.187Z,45.36
2018-05-23T13:58:46.712Z,44.65
2018-05-23T14:01:14.277Z,44.91
2018-05-23T14:03:41.890Z,44.31
2018-05-23T14:06:09.701Z,44.56
2018-05-23T14:08:37.396Z,44.53
2018-05-23T14:11:06.667Z,43.60
2018-05-23T14:13:34.178Z,42.97
2018-05-23T14:16:01.695Z,42.12
2018-05-23T14:18:29.326Z,40.54
2018-05-23T14:20:56.822Z,39.74
2018-05-23T14:23:24.351Z,38.83
2018-05-23T14:25:51.931Z,38.36
2018-05-23T14:28:19.456Z,37.81
2018-05-23T14:30:46.963Z,37.24
2018-05-23T14:33:14.559Z,36.17
2018-05-23T14:35:42.415Z,35.59
2018-05-23T14:38:10.057Z,34.71
2018-05-23T14:40:37.549Z,34.48
2018-05-23T14:43:05.357Z,33.68
2018-05-23T14:45:33.233Z,33.03
2018-05-23T14:48:00.846Z,32.44
2018-05-23T14:50:29.369Z,31.63
2018-05-23T14:52:56.903Z,31.14
2018-05-23T14:55:24.478Z,30.68
2018-05-23T14:57:52.011Z,30.40
2018-05-23T15:00:19.553Z,30.04
2018-05-23T15:02:47.102Z,29.68
2018-05-23T15:05:14.638Z,29.28
2018-05-23T15:07:42.172Z,28.93
2018-05-23T15:10:09.696Z,28.35
2018-05-23T15:12:37.268Z,28.06
2018-05-23T15:15:04.920Z,28.03
2018-05-23T15:17:32.583Z,27.89
2018-05-23T15:20:00.384Z,27.90
2018-05-23T15:22:28.186Z,27.62
2018-05-23T15:24:55.707Z,27.51
2018-05-23T15:27:23.273Z,27.55
2018-05-23T15:29:50.892Z,27.60
2018-05-23T15:32:18.621Z,27.55
2018-05-23T15:34:46.719Z,27.56
2018-05-23T15:37:14.647Z,27.47
2018-05-23T15:39:42.510Z,27.47
2018-05-23T15:42:10.421Z,27.47
2018-05-23T15:44:37.962Z,27.21
2018-05-23T15:47:05.499Z,27.18
2018-05-23T15:49:33.038Z,26.95
2018-05-23T15:52:00.603Z,26.90
2018-05-23T15:54:28.426Z,27.00
2018-05-23T15:56:55.981Z,26.90
2018-05-23T15:59:23.517Z,26.94
2018-05-23T16:01:51.058Z,26.92
2018-05-23T16:04:18.879Z,26.79
2018-05-23T16:06:46.512Z,26.83
2018-05-23T16:09:14.058Z,26.73
2018-05-23T16:11:41.645Z,26.63
2018-05-23T16:14:09.433Z,26.59
2018-05-23T16:16:37.572Z,26.54
2018-05-23T16:19:09.087Z,26.58
2018-05-23T16:21:37.480Z,26.47
2018-05-23T16:24:06.021Z,26.39
2018-05-23T16:26:33.839Z,26.37
2018-05-23T16:29:03.286Z,26.28
2018-05-23T16:31:33.642Z,26.21
2018-05-23T16:34:01.383Z,26.16
2018-05-23T16:36:31.730Z,26.16
2018-05-23T16:39:00.425Z,26.04
2018-05-23T16:41:28.026Z,26.06
2018-05-23T16:43:55.668Z,26.01
2018-05-23T16:46:24.598Z,25.97
2018-05-23T16:48:52.703Z,25.83
2018-05-23T16:51:21.411Z,25.87
2018-05-23T16:53:49.191Z,25.82
2018-05-23T16:56:16.814Z,25.85
2018-05-23T16:58:46.549Z,25.76
2018-05-23T17:01:16.262Z,25.73
2018-05-23T17:03:43.777Z,25.57
2018-05-23T17:06:11.427Z,25.49
2018-05-23T17:08:39.020Z,25.44
2018-05-23T17:11:06.602Z,25.39
2018-05-23T17:13:34.266Z,25.28
2018-05-23T17:16:01.862Z,25.25
2018-05-23T17:18:30.565Z,25.17
2018-05-23T17:20:59.169Z,25.17
2018-05-23T17:23:27.443Z,25.03
2018-05-23T17:25:55.379Z,24.94
2018-05-23T17:28:24.243Z,24.85
2018-05-23T17:30:52.794Z,24.84
2018-05-23T17:33:21.051Z,24.85
2018-05-23T17:35:49.657Z,24.76
2018-05-23T17:38:17.423Z,24.66
2018-05-23T17:40:44.978Z,24.66
2018-05-23T17:43:12.531Z,24.62
2018-05-23T17:45:40.084Z,24.59
2018-05-23T17:48:07.625Z,24.55
2018-05-23T17:50:35.186Z,24.52
2018-05-23T17:53:02.831Z,24.47
2018-05-23T17:55:30.641Z,24.47
2018-05-23T17:57:58.165Z,24.42
2018-05-23T18:00:25.684Z,24.42
2018-05-23T18:02:53.181Z,24.47
2018-05-23T18:05:20.739Z,24.41
2018-05-23T18:07:48.255Z,24.34
2018-05-23T18:10:15.810Z,24.35
2018-05-23T18:12:43.565Z,24.30
2018-05-23T18:15:11.094Z,24.28
2018-05-23T18:17:38.737Z,24.26
2018-05-23T18:20:06.249Z,24.25
2018-05-23T18:22:33.770Z,24.27
2018-05-23T18:25:01.618Z,24.22
2018-05-23T18:27:29.129Z,24.26
2018-05-23T18:29:56.666Z,24.21
2018-05-23T18:32:25.085Z,24.16
2018-05-23T18:34:52.616Z,24.14
2018-05-23T18:37:20.135Z,24.16
2018-05-23T18:39:47.917Z,24.15
2018-05-23T18:42:15.428Z,24.12
2018-05-23T18:44:43.164Z,24.08
2018-05-23T18:47:11.235Z,24.09
2018-05-23T18:49:39.763Z,24.04
2018-05-23T18:52:09.463Z,24.05
2018-05-23T18:54:38.050Z,23.96
2018-05-23T18:57:05.667Z,23.96
2018-05-23T18:59:33.958Z,23.92
2018-05-23T19:02:04.553Z,23.92
2018-05-23T19:04:34.123Z,23.84
2018-05-23T19:07:02.895Z,23.81
2018-05-23T19:09:30.883Z,23.80
2018-05-23T19:11:58.850Z,23.81
2018-05-23T19:14:26.407Z,23.77
2018-05-23T19:16:59.204Z,23.79
2018-05-23T19:19:26.973Z,23.77
2018-05-23T19:21:54.793Z,23.73
2018-05-23T19:24:22.588Z,23.73
2018-05-23T19:26:50.250Z,23.71
2018-05-23T19:29:21.437Z,23.58
2018-05-23T19:31:50.308Z,23.57
2018-05-23T19:34:17.936Z,23.54
2018-05-23T19:36:46.886Z,23.55
2018-05-23T19:39:14.396Z,23.52
2018-05-23T19:41:42.963Z,23.51
2018-05-23T19:44:11.505Z,23.49
2018-05-23T19:46:41.299Z,23.44
2018-05-23T19:49:10.073Z,23.30
2018-05-23T19:51:39.578Z,23.22
2018-05-23T19:54:07.922Z,23.16
2018-05-23T19:56:37.136Z,23.16
2018-05-23T19:59:05.242Z,23.11
2018-05-23T20:01:32.802Z,23.08
2018-05-23T20:04:02.747Z,23.08
2018-05-23T20:06:31.720Z,23.01
2018-05-23T20:09:01.548Z,22.98
2018-05-23T20:11:33.248Z,22.95
2018-05-23T20:14:01.597Z,22.86
2018-05-23T20:16:32.476Z,22.90
2018-05-23T20:19:01.805Z,22.77
2018-05-23T20:21:32.318Z,22.74
2018-05-23T20:24:00.311Z,22.72
2018-05-23T20:26:28.474Z,22.73
2018-05-23T20:28:56.064Z,22.70
2018-05-23T20:31:29.406Z,22.66
2018-05-23T20:33:57.935Z,22.59
2018-05-23T20:36:25.880Z,22.63
2018-05-23T20:38:53.471Z,22.58
2018-05-23T20:41:20.992Z,22.47
2018-05-23T20:43:48.613Z,22.45
2018-05-23T20:46:16.366Z,22.42
2018-05-23T20:48:43.942Z,22.41
2018-05-23T20:51:12.110Z,22.38
2018-05-23T20:53:39.636Z,22.34
2018-05-23T20:56:07.182Z,22.35
2018-05-23T20:58:34.774Z,22.28
2018-05-23T21:01:02.287Z,22.29
2018-05-23T21:03:29.782Z,22.22
2018-05-23T21:05:57.357Z,22.23
2018-05-23T21:08:24.960Z,22.25
2018-05-23T21:10:52.497Z,22.17
2018-05-23T21:13:20.451Z,22.13
2018-05-23T21:15:48.221Z,22.14
2018-05-23T21:18:15.793Z,22.11
2018-05-23T21:20:43.355Z,22.10
2018-05-23T21:23:10.874Z,22.08
2018-05-23T21:25:38.406Z,22.08
2018-05-23T21:28:05.921Z,22.04
2018-05-23T21:30:33.448Z,22.04
2018-05-23T21:33:01.010Z,21.94
2018-05-23T21:35:28.755Z,21.92
2018-05-23T21:37:56.354Z,21.91
2018-05-23T21:40:23.883Z,21.91
2018-05-23T21:42:51.420Z,21.88
2018-05-23T21:45:19.006Z,21.86
2018-05-23T21:47:46.803Z,21.88
2018-05-23T21:50:14.309Z,21.79
2018-05-23T21:52:41.829Z,21.77
2018-05-23T21:55:09.373Z,21.75
2018-05-23T21:57:36.917Z,21.73
2018-05-23T22:00:04.429Z,21.70
2018-05-23T22:02:31.973Z,21.69
2018-05-23T22:04:59.501Z,21.71
2018-05-23T22:07:27.025Z,21.72
2018-05-23T22:09:54.547Z,21.67
2018-05-23T22:12:22.078Z,21.68
2018-05-23T22:14:49.583Z,21.64
2018-05-23T22:17:17.142Z,21.65
2018-05-23T22:19:44.983Z,21.62
2018-05-23T22:22:12.548Z,21.57
2018-05-23T22:24:40.198Z,21.57
2018-05-23T22:27:07.620Z,21.52
2018-05-23T22:29:35.139Z,21.49
2018-05-23T22:32:02.774Z,21.47
2018-05-23T22:34:30.313Z,21.45
2018-05-23T22:36:57.840Z,21.36
2018-05-23T22:39:25.353Z,21.41
2018-05-23T22:41:52.880Z,21.40
2018-05-23T22:44:20.690Z,21.40
2018-05-23T22:46:48.238Z,21.37
2018-05-23T22:49:15.763Z,21.37
2018-05-23T22:51:44.127Z,21.33
2018-05-23T22:54:11.636Z,21.37
2018-05-23T22:56:39.147Z,21.34
2018-05-23T22:59:06.645Z,21.16
2018-05-23T23:01:34.218Z,20.97
2018-05-23T23:04:01.793Z,20.92
2018-05-23T23:06:29.398Z,20.78
2018-05-23T23:08:56.908Z,20.79
2018-05-23T23:11:24.776Z,20.75
2018-05-23T23:13:52.312Z,20.69
2018-05-23T23:16:20.090Z,20.61
2018-05-23T23:18:48.468Z,20.59
2018-05-23T23:21:16.239Z,20.55
2018-05-23T23:23:43.791Z,20.52
2018-05-23T23:26:11.395Z,20.50
2018-05-23T23:28:38.936Z,20.48
2018-05-23T23:31:06.465Z,20.45
2018-05-23T23:33:34.248Z,20.46
2018-05-23T23:36:01.754Z,20.41
2018-05-23T23:38:29.401Z,20.42
2018-05-23T23:40:56.943Z,20.39
2018-05-23T23:43:24.801Z,20.37
2018-05-23T23:45:52.303Z,20.36
2018-05-23T23:48:19.822Z,20.38
2018-05-23T23:50:47.325Z,20.33
2018-05-23T23:53:14.868Z,20.31
2018-05-23T23:55:42.422Z,20.28
2018-05-23T23:58:09.957Z,20.27
